sensor_id;sensor_type;location;lat;lon;timestamp;P1;durP1;ratioP1;P2;durP2;ratioP2
49296;SDS011;35163;48.878;18.040;2022-11-06T00:01:18;11.30;;;3.95;;
49296;SDS011;35163;48.878;18.040;2022-11-06T00:03:45;13.27;;;4.15;;
49296;SDS011;35163;48.878;18.040;2022-11-06T00:06:13;8.02;;;3.85;;
49296;SDS011;35163;48.878;18.040;2022-11-06T00:09:01;13.73;;;3.72;;
49296;SDS011;35163;48.878;18.040;2022-11-06T00:11:30;11.23;;;4.10;;
49296;SDS011;35163;48.878;18.040;2022-11-06T00:13:58;9.50;;;4.03;;
49296;SDS011;35163;48.878;18.040;2022-11-06T00:16:26;14.55;;;4.43;;
49296;SDS011;35163;48.878;18.040;2022-11-06T00:18:53;11.35;;;3.90;;
49296;SDS011;35163;48.878;18.040;2022-11-06T00:21:23;11.55;;;3.50;;
49296;SDS011;35163;48.878;18.040;2022-11-06T00:23:52;11.48;;;3.70;;
49296;SDS011;35163;48.878;18.040;2022-11-06T00:26:20;9.90;;;3.75;;
49296;SDS011;35163;48.878;18.040;2022-11-06T00:28:48;10.30;;;4.57;;
49296;SDS011;35163;48.878;18.040;2022-11-06T00:31:20;6.57;;;3.10;;
49296;SDS011;35163;48.878;18.040;2022-11-06T00:33:48;10.32;;;3.63;;
49296;SDS011;35163;48.878;18.040;2022-11-06T00:36:16;11.68;;;4.00;;
49296;SDS011;35163;48.878;18.040;2022-11-06T00:38:44;12.70;;;4.07;;
49296;SDS011;35163;48.878;18.040;2022-11-06T00:41:12;11.32;;;3.50;;
49296;SDS011;35163;48.878;18.040;2022-11-06T00:43:40;15.63;;;3.97;;
49296;SDS011;35163;48.878;18.040;2022-11-06T00:46:09;14.73;;;4.43;;
49296;SDS011;35163;48.878;18.040;2022-11-06T00:48:38;8.50;;;3.55;;
49296;SDS011;35163;48.878;18.040;2022-11-06T00:51:07;8.88;;;3.97;;
49296;SDS011;35163;48.878;18.040;2022-11-06T00:53:36;11.02;;;4.15;;
49296;SDS011;35163;48.878;18.040;2022-11-06T00:56:07;10.52;;;3.95;;
49296;SDS011;35163;48.878;18.040;2022-11-06T00:58:35;10.95;;;4.45;;
49296;SDS011;35163;48.878;18.040;2022-11-06T01:01:15;10.15;;;4.18;;
49296;SDS011;35163;48.878;18.040;2022-11-06T01:03:46;15.60;;;4.90;;
49296;SDS011;35163;48.878;18.040;2022-11-06T01:06:17;10.60;;;5.25;;
49296;SDS011;35163;48.878;18.040;2022-11-06T01:08:46;15.88;;;4.70;;
49296;SDS011;35163;48.878;18.040;2022-11-06T01:11:18;12.23;;;4.78;;
49296;SDS011;35163;48.878;18.040;2022-11-06T01:13:51;16.15;;;4.45;;
49296;SDS011;35163;48.878;18.040;2022-11-06T01:16:20;11.90;;;3.95;;
49296;SDS011;35163;48.878;18.040;2022-11-06T01:18:48;11.98;;;4.20;;
49296;SDS011;35163;48.878;18.040;2022-11-06T01:21:16;14.10;;;4.57;;
49296;SDS011;35163;48.878;18.040;2022-11-06T01:23:45;16.40;;;4.82;;
49296;SDS011;35163;48.878;18.040;2022-11-06T01:26:13;13.18;;;4.47;;
49296;SDS011;35163;48.878;18.040;2022-11-06T01:28:40;15.98;;;4.72;;
49296;SDS011;35163;48.878;18.040;2022-11-06T01:31:08;11.52;;;4.85;;
49296;SDS011;35163;48.878;18.040;2022-11-06T01:33:38;11.63;;;4.43;;
49296;SDS011;35163;48.878;18.040;2022-11-06T01:36:07;13.88;;;5.38;;
49296;SDS011;35163;48.878;18.040;2022-11-06T01:38:34;12.68;;;4.68;;
49296;SDS011;35163;48.878;18.040;2022-11-06T01:41:01;14.85;;;4.57;;
49296;SDS011;35163;48.878;18.040;2022-11-06T01:46:16;13.95;;;5.18;;
49296;SDS011;35163;48.878;18.040;2022-11-06T01:48:48;15.30;;;5.40;;
49296;SDS011;35163;48.878;18.040;2022-11-06T01:51:21;18.77;;;5.90;;
49296;SDS011;35163;48.878;18.040;2022-11-06T01:53:50;14.18;;;4.85;;
49296;SDS011;35163;48.878;18.040;2022-11-06T01:56:17;15.27;;;4.82;;
49296;SDS011;35163;48.878;18.040;2022-11-06T01:58:46;15.23;;;5.10;;
49296;SDS011;35163;48.878;18.040;2022-11-06T02:01:16;13.88;;;5.07;;
49296;SDS011;35163;48.878;18.040;2022-11-06T02:03:45;14.18;;;5.32;;
49296;SDS011;35163;48.878;18.040;2022-11-06T02:06:36;19.42;;;4.70;;
49296;SDS011;35163;48.878;18.040;2022-11-06T02:09:04;16.85;;;4.90;;
49296;SDS011;35163;48.878;18.040;2022-11-06T02:11:40;18.10;;;5.30;;
49296;SDS011;35163;48.878;18.040;2022-11-06T02:14:13;14.57;;;5.22;;
49296;SDS011;35163;48.878;18.040;2022-11-06T02:16:49;16.10;;;4.87;;
49296;SDS011;35163;48.878;18.040;2022-11-06T02:19:26;18.05;;;5.10;;
49296;SDS011;35163;48.878;18.040;2022-11-06T02:22:10;9.32;;;4.30;;
49296;SDS011;35163;48.878;18.040;2022-11-06T02:27:32;13.48;;;4.63;;
49296;SDS011;35163;48.878;18.040;2022-11-06T02:30:07;17.25;;;5.20;;
49296;SDS011;35163;48.878;18.040;2022-11-06T02:37:45;10.95;;;4.43;;
49296;SDS011;35163;48.878;18.040;2022-11-06T02:40:14;11.18;;;4.43;;
49296;SDS011;35163;48.878;18.040;2022-11-06T02:42:44;11.65;;;4.70;;
49296;SDS011;35163;48.878;18.040;2022-11-06T02:45:14;13.52;;;4.75;;
49296;SDS011;35163;48.878;18.040;2022-11-06T02:47:42;17.63;;;5.40;;
49296;SDS011;35163;48.878;18.040;2022-11-06T02:50:17;14.32;;;4.78;;
49296;SDS011;35163;48.878;18.040;2022-11-06T02:52:50;11.40;;;4.80;;
49296;SDS011;35163;48.878;18.040;2022-11-06T02:58:03;14.85;;;5.43;;
49296;SDS011;35163;48.878;18.040;2022-11-06T03:00:34;12.50;;;4.47;;
49296;SDS011;35163;48.878;18.040;2022-11-06T03:03:06;13.55;;;5.85;;
49296;SDS011;35163;48.878;18.040;2022-11-06T03:05:53;12.85;;;4.72;;
49296;SDS011;35163;48.878;18.040;2022-11-06T03:11:16;11.98;;;5.13;;
49296;SDS011;35163;48.878;18.040;2022-11-06T03:13:51;16.23;;;5.20;;
49296;SDS011;35163;48.878;18.040;2022-11-06T03:21:29;15.07;;;5.40;;
49296;SDS011;35163;48.878;18.040;2022-11-06T03:24:03;14.10;;;5.15;;
49296;SDS011;35163;48.878;18.040;2022-11-06T03:26:44;15.00;;;5.28;;
49296;SDS011;35163;48.878;18.040;2022-11-06T03:29:18;14.73;;;5.45;;
49296;SDS011;35163;48.878;18.040;2022-11-06T03:31:53;19.15;;;5.22;;
49296;SDS011;35163;48.878;18.040;2022-11-06T03:34:28;17.23;;;6.40;;
49296;SDS011;35163;48.878;18.040;2022-11-06T03:37:06;12.40;;;5.20;;
49296;SDS011;35163;48.878;18.040;2022-11-06T03:39:43;13.88;;;5.57;;
49296;SDS011;35163;48.878;18.040;2022-11-06T03:42:15;14.02;;;5.25;;
49296;SDS011;35163;48.878;18.040;2022-11-06T03:44:47;12.85;;;5.03;;
49296;SDS011;35163;48.878;18.040;2022-11-06T03:47:26;10.50;;;5.20;;
49296;SDS011;35163;48.878;18.040;2022-11-06T03:50:10;13.25;;;5.00;;
49296;SDS011;35163;48.878;18.040;2022-11-06T03:52:51;12.57;;;5.55;;
49296;SDS011;35163;48.878;18.040;2022-11-06T03:55:31;18.30;;;6.30;;
49296;SDS011;35163;48.878;18.040;2022-11-06T03:58:12;15.98;;;5.18;;
49296;SDS011;35163;48.878;18.040;2022-11-06T04:00:44;13.48;;;5.30;;
49296;SDS011;35163;48.878;18.040;2022-11-06T04:03:19;16.08;;;5.10;;
49296;SDS011;35163;48.878;18.040;2022-11-06T04:05:52;17.27;;;6.18;;
49296;SDS011;35163;48.878;18.040;2022-11-06T04:08:25;15.55;;;5.07;;
49296;SDS011;35163;48.878;18.040;2022-11-06T04:11:13;10.95;;;5.25;;
49296;SDS011;35163;48.878;18.040;2022-11-06T04:14:02;15.65;;;5.20;;
49296;SDS011;35163;48.878;18.040;2022-11-06T04:16:35;15.68;;;5.75;;
49296;SDS011;35163;48.878;18.040;2022-11-06T04:19:05;18.38;;;5.38;;
49296;SDS011;35163;48.878;18.040;2022-11-06T04:30:18;12.35;;;5.05;;
49296;SDS011;35163;48.878;18.040;2022-11-06T04:44:08;12.23;;;4.70;;
49296;SDS011;35163;48.878;18.040;2022-11-06T04:49:45;14.27;;;5.07;;
49296;SDS011;35163;48.878;18.040;2022-11-06T04:52:16;13.70;;;4.55;;
49296;SDS011;35163;48.878;18.040;2022-11-06T04:54:45;13.77;;;4.47;;
49296;SDS011;35163;48.878;18.040;2022-11-06T04:57:12;10.25;;;4.63;;
49296;SDS011;35163;48.878;18.040;2022-11-06T04:59:39;17.15;;;4.70;;
49296;SDS011;35163;48.878;18.040;2022-11-06T05:02:05;12.43;;;4.30;;
49296;SDS011;35163;48.878;18.040;2022-11-06T05:04:32;12.18;;;4.63;;
49296;SDS011;35163;48.878;18.040;2022-11-06T05:06:59;14.45;;;5.25;;
49296;SDS011;35163;48.878;18.040;2022-11-06T05:09:26;15.95;;;5.10;;
49296;SDS011;35163;48.878;18.040;2022-11-06T05:11:52;12.40;;;4.82;;
49296;SDS011;35163;48.878;18.040;2022-11-06T05:14:19;10.25;;;4.10;;
49296;SDS011;35163;48.878;18.040;2022-11-06T05:16:45;10.68;;;4.72;;
49296;SDS011;35163;48.878;18.040;2022-11-06T05:19:12;13.57;;;4.57;;
49296;SDS011;35163;48.878;18.040;2022-11-06T05:21:39;11.52;;;4.65;;
49296;SDS011;35163;48.878;18.040;2022-11-06T05:24:24;12.50;;;3.65;;
49296;SDS011;35163;48.878;18.040;2022-11-06T05:26:50;13.02;;;4.75;;
49296;SDS011;35163;48.878;18.040;2022-11-06T05:29:24;22.33;;;5.05;;
49296;SDS011;35163;48.878;18.040;2022-11-06T05:31:51;13.32;;;4.60;;
49296;SDS011;35163;48.878;18.040;2022-11-06T05:34:17;16.67;;;5.63;;
49296;SDS011;35163;48.878;18.040;2022-11-06T05:36:44;11.35;;;4.25;;
49296;SDS011;35163;48.878;18.040;2022-11-06T05:39:10;12.60;;;4.18;;
49296;SDS011;35163;48.878;18.040;2022-11-06T05:41:37;12.00;;;4.70;;
49296;SDS011;35163;48.878;18.040;2022-11-06T05:44:04;14.05;;;4.75;;
49296;SDS011;35163;48.878;18.040;2022-11-06T05:46:30;11.55;;;5.03;;
49296;SDS011;35163;48.878;18.040;2022-11-06T05:49:15;11.27;;;4.93;;
49296;SDS011;35163;48.878;18.040;2022-11-06T05:51:43;13.48;;;4.70;;
49296;SDS011;35163;48.878;18.040;2022-11-06T05:54:10;14.20;;;5.32;;
49296;SDS011;35163;48.878;18.040;2022-11-06T05:56:37;12.13;;;4.55;;
49296;SDS011;35163;48.878;18.040;2022-11-06T05:59:04;13.85;;;5.25;;
49296;SDS011;35163;48.878;18.040;2022-11-06T06:01:31;12.32;;;5.20;;
49296;SDS011;35163;48.878;18.040;2022-11-06T06:03:57;16.58;;;5.35;;
49296;SDS011;35163;48.878;18.040;2022-11-06T06:06:24;15.80;;;5.63;;
49296;SDS011;35163;48.878;18.040;2022-11-06T06:08:51;12.00;;;4.90;;
49296;SDS011;35163;48.878;18.040;2022-11-06T06:11:18;16.08;;;5.30;;
49296;SDS011;35163;48.878;18.040;2022-11-06T06:13:44;13.57;;;5.57;;
49296;SDS011;35163;48.878;18.040;2022-11-06T06:16:11;13.85;;;5.25;;
49296;SDS011;35163;48.878;18.040;2022-11-06T06:18:38;19.00;;;5.80;;
49296;SDS011;35163;48.878;18.040;2022-11-06T06:21:05;13.43;;;5.60;;
49296;SDS011;35163;48.878;18.040;2022-11-06T06:23:31;18.63;;;6.80;;
49296;SDS011;35163;48.878;18.040;2022-11-06T06:25:58;13.40;;;5.70;;
49296;SDS011;35163;48.878;18.040;2022-11-06T06:28:25;15.43;;;6.20;;
49296;SDS011;35163;48.878;18.040;2022-11-06T06:30:51;16.83;;;5.90;;
49296;SDS011;35163;48.878;18.040;2022-11-06T06:33:26;15.68;;;6.10;;
49296;SDS011;35163;48.878;18.040;2022-11-06T06:35:52;15.65;;;5.75;;
49296;SDS011;35163;48.878;18.040;2022-11-06T06:38:19;15.70;;;6.03;;
49296;SDS011;35163;48.878;18.040;2022-11-06T06:40:46;15.18;;;6.30;;
49296;SDS011;35163;48.878;18.040;2022-11-06T06:43:12;13.65;;;5.32;;
49296;SDS011;35163;48.878;18.040;2022-11-06T06:45:39;13.80;;;5.20;;
49296;SDS011;35163;48.878;18.040;2022-11-06T06:48:06;12.45;;;5.10;;
49296;SDS011;35163;48.878;18.040;2022-11-06T06:50:33;15.35;;;5.32;;
49296;SDS011;35163;48.878;18.040;2022-11-06T06:52:59;15.48;;;4.97;;
49296;SDS011;35163;48.878;18.040;2022-11-06T06:55:26;13.98;;;6.10;;
49296;SDS011;35163;48.878;18.040;2022-11-06T06:57:58;17.15;;;5.85;;
49296;SDS011;35163;48.878;18.040;2022-11-06T07:00:26;19.77;;;7.00;;
49296;SDS011;35163;48.878;18.040;2022-11-06T07:02:54;15.00;;;5.65;;
49296;SDS011;35163;48.878;18.040;2022-11-06T07:05:21;20.77;;;6.88;;
49296;SDS011;35163;48.878;18.040;2022-11-06T07:07:48;15.52;;;6.22;;
49296;SDS011;35163;48.878;18.040;2022-11-06T07:10:14;15.95;;;5.63;;
49296;SDS011;35163;48.878;18.040;2022-11-06T07:12:41;15.07;;;5.72;;
49296;SDS011;35163;48.878;18.040;2022-11-06T07:15:08;14.35;;;5.47;;
49296;SDS011;35163;48.878;18.040;2022-11-06T07:17:35;20.80;;;6.82;;
49296;SDS011;35163;48.878;18.040;2022-11-06T07:20:02;14.88;;;6.38;;
49296;SDS011;35163;48.878;18.040;2022-11-06T07:22:29;16.40;;;6.53;;
49296;SDS011;35163;48.878;18.040;2022-11-06T07:25:03;18.60;;;5.95;;
49296;SDS011;35163;48.878;18.040;2022-11-06T07:27:30;15.57;;;5.78;;
49296;SDS011;35163;48.878;18.040;2022-11-06T07:29:57;17.45;;;6.22;;
49296;SDS011;35163;48.878;18.040;2022-11-06T07:32:25;14.23;;;5.90;;
49296;SDS011;35163;48.878;18.040;2022-11-06T07:34:52;13.27;;;5.57;;
49296;SDS011;35163;48.878;18.040;2022-11-06T07:37:19;19.65;;;5.70;;
49296;SDS011;35163;48.878;18.040;2022-11-06T07:39:46;17.85;;;6.68;;
49296;SDS011;35163;48.878;18.040;2022-11-06T07:42:12;13.38;;;5.68;;
49296;SDS011;35163;48.878;18.040;2022-11-06T07:44:39;12.90;;;6.05;;
49296;SDS011;35163;48.878;18.040;2022-11-06T07:47:05;16.00;;;5.82;;
49296;SDS011;35163;48.878;18.040;2022-11-06T07:49:32;17.75;;;5.90;;
49296;SDS011;35163;48.878;18.040;2022-11-06T07:51:58;12.60;;;5.80;;
49296;SDS011;35163;48.878;18.040;2022-11-06T07:54:25;13.55;;;5.72;;
49296;SDS011;35163;48.878;18.040;2022-11-06T07:56:52;17.42;;;6.47;;
49296;SDS011;35163;48.878;18.040;2022-11-06T07:59:18;17.27;;;5.68;;
49296;SDS011;35163;48.878;18.040;2022-11-06T08:01:45;19.75;;;6.82;;
49296;SDS011;35163;48.878;18.040;2022-11-06T08:04:11;14.52;;;6.43;;
49296;SDS011;35163;48.878;18.040;2022-11-06T08:06:38;22.30;;;7.40;;
49296;SDS011;35163;48.878;18.040;2022-11-06T08:09:08;13.75;;;6.15;;
49296;SDS011;35163;48.878;18.040;2022-11-06T08:11:34;14.50;;;6.97;;
49296;SDS011;35163;48.878;18.040;2022-11-06T08:14:01;17.65;;;6.40;;
49296;SDS011;35163;48.878;18.040;2022-11-06T08:16:28;14.13;;;5.95;;
49296;SDS011;35163;48.878;18.040;2022-11-06T08:18:55;16.25;;;6.88;;
49296;SDS011;35163;48.878;18.040;2022-11-06T08:21:21;13.15;;;6.00;;
49296;SDS011;35163;48.878;18.040;2022-11-06T08:23:48;16.98;;;7.43;;
49296;SDS011;35163;48.878;18.040;2022-11-06T08:26:15;14.98;;;6.57;;
49296;SDS011;35163;48.878;18.040;2022-11-06T08:28:41;17.85;;;7.10;;
49296;SDS011;35163;48.878;18.040;2022-11-06T08:31:08;17.27;;;6.38;;
49296;SDS011;35163;48.878;18.040;2022-11-06T08:33:35;17.60;;;6.18;;
49296;SDS011;35163;48.878;18.040;2022-11-06T08:36:03;18.50;;;6.75;;
49296;SDS011;35163;48.878;18.040;2022-11-06T08:38:31;13.95;;;7.30;;
49296;SDS011;35163;48.878;18.040;2022-11-06T08:41:02;15.77;;;6.85;;
49296;SDS011;35163;48.878;18.040;2022-11-06T08:43:33;15.90;;;6.78;;
49296;SDS011;35163;48.878;18.040;2022-11-06T08:46:01;17.10;;;7.18;;
49296;SDS011;35163;48.878;18.040;2022-11-06T08:48:29;12.63;;;6.90;;
49296;SDS011;35163;48.878;18.040;2022-11-06T08:50:56;15.25;;;6.85;;
49296;SDS011;35163;48.878;18.040;2022-11-06T08:53:23;20.35;;;7.47;;
49296;SDS011;35163;48.878;18.040;2022-11-06T08:55:50;15.65;;;6.90;;
49296;SDS011;35163;48.878;18.040;2022-11-06T08:58:16;18.70;;;7.65;;
49296;SDS011;35163;48.878;18.040;2022-11-06T09:00:43;16.73;;;7.43;;
49296;SDS011;35163;48.878;18.040;2022-11-06T09:03:14;17.88;;;7.10;;
49296;SDS011;35163;48.878;18.040;2022-11-06T09:05:43;16.73;;;7.15;;
49296;SDS011;35163;48.878;18.040;2022-11-06T09:08:11;18.52;;;6.88;;
49296;SDS011;35163;48.878;18.040;2022-11-06T09:10:38;18.90;;;7.72;;
49296;SDS011;35163;48.878;18.040;2022-11-06T09:13:06;15.68;;;7.95;;
49296;SDS011;35163;48.878;18.040;2022-11-06T09:15:33;15.27;;;7.70;;
49296;SDS011;35163;48.878;18.040;2022-11-06T09:18:00;15.55;;;6.75;;
49296;SDS011;35163;48.878;18.040;2022-11-06T09:20:27;16.30;;;7.68;;
49296;SDS011;35163;48.878;18.040;2022-11-06T09:22:54;20.55;;;7.55;;
49296;SDS011;35163;48.878;18.040;2022-11-06T09:25:25;16.20;;;7.10;;
49296;SDS011;35163;48.878;18.040;2022-11-06T09:27:52;16.52;;;7.63;;
49296;SDS011;35163;48.878;18.040;2022-11-06T09:30:24;17.38;;;7.07;;
49296;SDS011;35163;48.878;18.040;2022-11-06T09:32:54;16.00;;;7.47;;
49296;SDS011;35163;48.878;18.040;2022-11-06T09:35:23;15.68;;;7.32;;
49296;SDS011;35163;48.878;18.040;2022-11-06T09:37:50;18.88;;;7.65;;
49296;SDS011;35163;48.878;18.040;2022-11-06T09:40:22;14.48;;;6.28;;
49296;SDS011;35163;48.878;18.040;2022-11-06T09:45:33;13.88;;;6.72;;
49296;SDS011;35163;48.878;18.040;2022-11-06T09:48:10;14.00;;;6.13;;
49296;SDS011;35163;48.878;18.040;2022-11-06T09:50:49;13.80;;;6.75;;
49296;SDS011;35163;48.878;18.040;2022-11-06T09:53:28;17.90;;;7.50;;
49296;SDS011;35163;48.878;18.040;2022-11-06T09:56:00;19.58;;;7.20;;
49296;SDS011;35163;48.878;18.040;2022-11-06T09:58:35;14.73;;;6.63;;
49296;SDS011;35163;48.878;18.040;2022-11-06T10:03:56;25.05;;;7.53;;
49296;SDS011;35163;48.878;18.040;2022-11-06T10:06:25;20.30;;;7.20;;
49296;SDS011;35163;48.878;18.040;2022-11-06T10:08:58;13.23;;;6.60;;
49296;SDS011;35163;48.878;18.040;2022-11-06T10:11:36;17.00;;;6.80;;
49296;SDS011;35163;48.878;18.040;2022-11-06T10:14:34;15.60;;;6.88;;
49296;SDS011;35163;48.878;18.040;2022-11-06T10:23:00;15.32;;;7.55;;
49296;SDS011;35163;48.878;18.040;2022-11-06T10:25:45;15.90;;;8.05;;
49296;SDS011;35163;48.878;18.040;2022-11-06T10:28:33;15.95;;;6.97;;
49296;SDS011;35163;48.878;18.040;2022-11-06T10:31:21;23.55;;;8.25;;
49296;SDS011;35163;48.878;18.040;2022-11-06T10:33:51;19.95;;;8.15;;
49296;SDS011;35163;48.878;18.040;2022-11-06T10:36:29;18.35;;;7.40;;
49296;SDS011;35163;48.878;18.040;2022-11-06T10:39:27;16.77;;;7.43;;
49296;SDS011;35163;48.878;18.040;2022-11-06T10:44:42;14.07;;;6.65;;
49296;SDS011;35163;48.878;18.040;2022-11-06T10:47:14;13.63;;;7.05;;
49296;SDS011;35163;48.878;18.040;2022-11-06T10:49:45;13.23;;;6.72;;
49296;SDS011;35163;48.878;18.040;2022-11-06T10:58:05;13.70;;;6.60;;
49296;SDS011;35163;48.878;18.040;2022-11-06T11:00:41;21.70;;;7.68;;
49296;SDS011;35163;48.878;18.040;2022-11-06T11:03:15;17.58;;;6.65;;
49296;SDS011;35163;48.878;18.040;2022-11-06T11:05:46;17.85;;;7.78;;
49296;SDS011;35163;48.878;18.040;2022-11-06T11:13:48;22.00;;;8.95;;
49296;SDS011;35163;48.878;18.040;2022-11-06T11:16:25;20.38;;;7.72;;
49296;SDS011;35163;48.878;18.040;2022-11-06T11:18:53;19.70;;;8.35;;
49296;SDS011;35163;48.878;18.040;2022-11-06T11:21:44;14.75;;;8.18;;
49296;SDS011;35163;48.878;18.040;2022-11-06T11:24:21;19.40;;;7.57;;
49296;SDS011;35163;48.878;18.040;2022-11-06T11:26:50;18.50;;;7.63;;
49296;SDS011;35163;48.878;18.040;2022-11-06T11:29:23;23.75;;;7.95;;
49296;SDS011;35163;48.878;18.040;2022-11-06T11:32:03;14.13;;;7.55;;
49296;SDS011;35163;48.878;18.040;2022-11-06T11:34:34;14.88;;;7.70;;
49296;SDS011;35163;48.878;18.040;2022-11-06T11:37:23;17.48;;;7.68;;
49296;SDS011;35163;48.878;18.040;2022-11-06T11:39:54;17.05;;;7.95;;
49296;SDS011;35163;48.878;18.040;2022-11-06T11:42:24;16.65;;;8.68;;
49296;SDS011;35163;48.878;18.040;2022-11-06T11:47:34;19.65;;;8.50;;
49296;SDS011;35163;48.878;18.040;2022-11-06T11:52:44;23.42;;;8.63;;
49296;SDS011;35163;48.878;18.040;2022-11-06T11:55:14;19.45;;;7.85;;
49296;SDS011;35163;48.878;18.040;2022-11-06T11:57:47;15.00;;;7.63;;
49296;SDS011;35163;48.878;18.040;2022-11-06T12:00:20;19.65;;;8.02;;
49296;SDS011;35163;48.878;18.040;2022-11-06T12:05:36;16.30;;;8.05;;
49296;SDS011;35163;48.878;18.040;2022-11-06T12:08:06;21.05;;;8.23;;
49296;SDS011;35163;48.878;18.040;2022-11-06T12:10:40;14.80;;;7.13;;
49296;SDS011;35163;48.878;18.040;2022-11-06T12:13:21;15.65;;;6.65;;
49296;SDS011;35163;48.878;18.040;2022-11-06T12:15:50;14.52;;;7.50;;
49296;SDS011;35163;48.878;18.040;2022-11-06T12:21:11;14.77;;;6.82;;
49296;SDS011;35163;48.878;18.040;2022-11-06T12:26:44;16.40;;;7.05;;
49296;SDS011;35163;48.878;18.040;2022-11-06T12:32:21;15.55;;;6.65;;
49296;SDS011;35163;48.878;18.040;2022-11-06T12:37:56;17.98;;;6.90;;
49296;SDS011;35163;48.878;18.040;2022-11-06T12:40:47;19.48;;;7.68;;
49296;SDS011;35163;48.878;18.040;2022-11-06T12:43:22;15.85;;;6.35;;
49296;SDS011;35163;48.878;18.040;2022-11-06T12:51:14;13.18;;;6.50;;
49296;SDS011;35163;48.878;18.040;2022-11-06T13:05:15;18.52;;;8.02;;
49296;SDS011;35163;48.878;18.040;2022-11-06T13:08:00;18.45;;;7.05;;
49296;SDS011;35163;48.878;18.040;2022-11-06T13:19:00;13.15;;;6.25;;
49296;SDS011;35163;48.878;18.040;2022-11-06T13:24:19;16.13;;;6.47;;
49296;SDS011;35163;48.878;18.040;2022-11-06T13:26:59;20.88;;;6.55;;
49296;SDS011;35163;48.878;18.040;2022-11-06T13:29:36;14.43;;;6.50;;
49296;SDS011;35163;48.878;18.040;2022-11-06T13:32:04;13.35;;;6.88;;
49296;SDS011;35163;48.878;18.040;2022-11-06T13:34:37;16.98;;;6.70;;
49296;SDS011;35163;48.878;18.040;2022-11-06T13:37:11;14.63;;;6.78;;
49296;SDS011;35163;48.878;18.040;2022-11-06T13:39:43;15.60;;;6.95;;
49296;SDS011;35163;48.878;18.040;2022-11-06T13:42:22;16.33;;;7.38;;
49296;SDS011;35163;48.878;18.040;2022-11-06T13:44:54;15.05;;;6.82;;
49296;SDS011;35163;48.878;18.040;2022-11-06T13:47:31;14.68;;;6.25;;
49296;SDS011;35163;48.878;18.040;2022-11-06T13:50:14;16.35;;;7.43;;
49296;SDS011;35163;48.878;18.040;2022-11-06T13:58:57;13.60;;;6.45;;
49296;SDS011;35163;48.878;18.040;2022-11-06T14:07:03;12.65;;;6.40;;
49296;SDS011;35163;48.878;18.040;2022-11-06T14:09:33;11.98;;;6.25;;
49296;SDS011;35163;48.878;18.040;2022-11-06T14:12:02;14.23;;;5.95;;
49296;SDS011;35163;48.878;18.040;2022-11-06T14:14:39;16.50;;;7.22;;
49296;SDS011;35163;48.878;18.040;2022-11-06T14:24:56;14.73;;;6.47;;
49296;SDS011;35163;48.878;18.040;2022-11-06T14:29:57;17.08;;;6.72;;
49296;SDS011;35163;48.878;18.040;2022-11-06T14:34:56;15.98;;;7.30;;
49296;SDS011;35163;48.878;18.040;2022-11-06T14:44:53;16.08;;;7.65;;
49296;SDS011;35163;48.878;18.040;2022-11-06T14:47:27;15.15;;;6.75;;
49296;SDS011;35163;48.878;18.040;2022-11-06T14:49:59;18.70;;;7.50;;
49296;SDS011;35163;48.878;18.040;2022-11-06T14:52:40;15.38;;;7.25;;
49296;SDS011;35163;48.878;18.040;2022-11-06T14:55:20;15.00;;;6.82;;
49296;SDS011;35163;48.878;18.040;2022-11-06T14:57:52;18.83;;;7.50;;
49296;SDS011;35163;48.878;18.040;2022-11-06T15:00:33;15.77;;;6.95;;
49296;SDS011;35163;48.878;18.040;2022-11-06T15:03:01;17.02;;;7.43;;
49296;SDS011;35163;48.878;18.040;2022-11-06T15:05:30;13.30;;;6.78;;
49296;SDS011;35163;48.878;18.040;2022-11-06T15:08:07;19.50;;;7.93;;
49296;SDS011;35163;48.878;18.040;2022-11-06T15:15:43;17.80;;;7.97;;
49296;SDS011;35163;48.878;18.040;2022-11-06T15:18:13;18.80;;;8.43;;
49296;SDS011;35163;48.878;18.040;2022-11-06T15:20:54;15.07;;;7.63;;
49296;SDS011;35163;48.878;18.040;2022-11-06T15:23:30;17.85;;;7.90;;
49296;SDS011;35163;48.878;18.040;2022-11-06T15:26:14;17.30;;;7.57;;
49296;SDS011;35163;48.878;18.040;2022-11-06T15:31:34;12.63;;;6.90;;
49296;SDS011;35163;48.878;18.040;2022-11-06T15:34:16;16.27;;;7.72;;
49296;SDS011;35163;48.878;18.040;2022-11-06T15:36:46;18.13;;;8.07;;
49296;SDS011;35163;48.878;18.040;2022-11-06T15:42:10;17.42;;;7.97;;
49296;SDS011;35163;48.878;18.040;2022-11-06T15:44:41;19.08;;;7.68;;
49296;SDS011;35163;48.878;18.040;2022-11-06T15:49:45;17.88;;;8.60;;
49296;SDS011;35163;48.878;18.040;2022-11-06T15:52:16;18.23;;;7.78;;
49296;SDS011;35163;48.878;18.040;2022-11-06T15:54:43;16.55;;;7.20;;
49296;SDS011;35163;48.878;18.040;2022-11-06T15:59:40;16.92;;;8.18;;
49296;SDS011;35163;48.878;18.040;2022-11-06T16:02:14;15.73;;;7.20;;
49296;SDS011;35163;48.878;18.040;2022-11-06T16:04:43;16.98;;;7.70;;
49296;SDS011;35163;48.878;18.040;2022-11-06T16:07:11;19.27;;;7.88;;
49296;SDS011;35163;48.878;18.040;2022-11-06T16:09:38;18.13;;;7.25;;
49296;SDS011;35163;48.878;18.040;2022-11-06T16:12:11;20.77;;;8.68;;
49296;SDS011;35163;48.878;18.040;2022-11-06T16:14:40;18.23;;;7.15;;
49296;SDS011;35163;48.878;18.040;2022-11-06T16:17:21;19.05;;;8.07;;
49296;SDS011;35163;48.878;18.040;2022-11-06T16:19:51;19.85;;;7.95;;
49296;SDS011;35163;48.878;18.040;2022-11-06T16:22:26;14.18;;;6.90;;
49296;SDS011;35163;48.878;18.040;2022-11-06T16:25:03;14.73;;;6.75;;
49296;SDS011;35163;48.878;18.040;2022-11-06T16:27:32;15.15;;;6.88;;
49296;SDS011;35163;48.878;18.040;2022-11-06T16:30:00;17.27;;;7.25;;
49296;SDS011;35163;48.878;18.040;2022-11-06T16:32:36;16.70;;;6.20;;
49296;SDS011;35163;48.878;18.040;2022-11-06T16:41:01;15.80;;;7.63;;
49296;SDS011;35163;48.878;18.040;2022-11-06T16:43:28;17.60;;;7.60;;
49296;SDS011;35163;48.878;18.040;2022-11-06T16:46:02;16.20;;;7.63;;
49296;SDS011;35163;48.878;18.040;2022-11-06T16:48:34;18.13;;;8.45;;
49296;SDS011;35163;48.878;18.040;2022-11-06T16:51:48;22.98;;;8.32;;
49296;SDS011;35163;48.878;18.040;2022-11-06T16:53:57;17.27;;;8.45;;
49296;SDS011;35163;48.878;18.040;2022-11-06T16:56:29;19.60;;;8.63;;
49296;SDS011;35163;48.878;18.040;2022-11-06T16:59:08;18.90;;;7.25;;
49296;SDS011;35163;48.878;18.040;2022-11-06T17:01:43;15.23;;;7.18;;
49296;SDS011;35163;48.878;18.040;2022-11-06T17:04:23;18.00;;;7.13;;
49296;SDS011;35163;48.878;18.040;2022-11-06T17:06:55;16.90;;;7.20;;
49296;SDS011;35163;48.878;18.040;2022-11-06T17:09:33;17.52;;;7.03;;
49296;SDS011;35163;48.878;18.040;2022-11-06T17:12:02;20.63;;;7.72;;
49296;SDS011;35163;48.878;18.040;2022-11-06T17:14:29;15.50;;;6.80;;
49296;SDS011;35163;48.878;18.040;2022-11-06T17:16:58;13.15;;;6.55;;
49296;SDS011;35163;48.878;18.040;2022-11-06T17:19:26;14.57;;;7.60;;
49296;SDS011;35163;48.878;18.040;2022-11-06T17:21:53;16.77;;;6.80;;
49296;SDS011;35163;48.878;18.040;2022-11-06T17:24:20;20.13;;;7.45;;
49296;SDS011;35163;48.878;18.040;2022-11-06T17:27:03;15.68;;;7.07;;
49296;SDS011;35163;48.878;18.040;2022-11-06T17:29:33;17.92;;;7.78;;
49296;SDS011;35163;48.878;18.040;2022-11-06T17:32:01;15.18;;;6.35;;
49296;SDS011;35163;48.878;18.040;2022-11-06T17:34:28;15.32;;;6.80;;
49296;SDS011;35163;48.878;18.040;2022-11-06T17:36:55;21.10;;;7.00;;